Newaygo, MI

5:13 AM EDT on June 24, 2017 (GMT -0400)
(MAC), Newaygo | | Change Station
Active Advisory: Flood Warning

Elev 640 ft 43.42 °N, 85.81 °W | Updated 3 minutes ago

Clear
Clear
55.5 °F
Feels Like 55.5 °F
N
0.0
Wind Variable Wind from SSW
Gusts 0.0 mph

Today
High -- | Low -- °F
--% Chance of Precip.
Yesterday
High -- | Low -- °F
Precip. -- in
Pressure 29.80 in
Visibility 10.0 miles
Clouds Clear
Dew Point 54 °F
Humidity 95%
Rainfall 0.00 in
Snow Depth Not available.
6:03 AM 9:27 PM
New Moon, 0% visible
METAR KFFX 240854Z AUTO 28004KT 10SM CLR 14/12 A2980 RMK AO2 T01380122
Pressure 29.80 in
Visibility 10.0 miles
Clouds Clear
Dew Point 54 °F
Humidity 95%
Rainfall 0.00 in
Snow Depth Not available.
6:03 AM 9:27 PM
New Moon, 0% visible
METAR KFFX 240854Z AUTO 28004KT 10SM CLR 14/12 A2980 RMK AO2 T01380122

Get Your Daily Forecast Email!

Thanks for signing up!

Be on the lookout for a verification email in your inbox.

You'll start receiving severe weather alerts in your inbox..

×

10-Day Weather Forecast

Almanac

Astronomy

Jun. 24, 2017 Rise Set
Actual Time
Civil Twilight
Nautical Twilight
Astronomical Twilight
Moon
Length of Visible Light
Length of Day
Tomorrow will be .
, % of the Moon is Illuminated

Today's Extremes

State Highs State Lows

Community

WunderPhotos

Category 6

Welcome to Category 6. This is the collective home for Weather Underground's featured writeups by Dr. Jeff Masters (right), Bob Henson (left), Chris Burt, and other regular contributors.

Nearby

Air Quality

  Air Quality AQ Index Pollutant
Not available.

Snow Depth

Station Depth Elevation

Earthquake Activity

City Distance Mag. Time & Date
Minimum magnitude displayed is 2.5.

Coastal Water Temperatures

Place Temperature

Stations

Nearby Weather Stations

Station Location Temp. Windchill Dew Point Humidity Wind Precip. Elev Updated Type
                   

Watches & Warnings

Flood Warning
Issued: 10:50 PM EDT Jun. 23, 2017 – National Weather Service

The Flood Warning continues for
the Muskegon river near Croton.
* Until Sunday morning.
* At 9:30 PM Friday the stage was 8.9 feet.
* Flood stage is 9.0 feet.
* Minor flooding is forecast.
* Forecast, the river will rise above flood stage by Saturday
morning and crest at 9.5 feet around 9 am Saturday. The river will
fall below flood stage by sturday evening.
* Impact, at 9.5 feet... flood water begins surrounding cottages and
homes downstream from the city of Newaygo in the areas of leisure
land subdivision in Bridgeton township and Sycamore Flats in
Ashland township impacting 17 properties.
* Flood history, this crest compares to a previous crest of 10.0 feet
on Apr 1 2016.


Lat... Lon 4335 8604 4345 8582 4346 8570 4342 8562
      4338 8578 4328 8604